Aviation Digital Data Service (ADDS)

Output produced by METARs form (0204 UTC 22 April 2019)
found at http://www.aviationweather.gov/metar/data/
 
Forecast for: VLPS (PAKSE INTL , LA)
Text: TAF VLPS 211700Z 2118/2218 16006KT 8000 SCT020 SCT200
Forecast period: 1800 UTC 21 April 2019 to 1800 UTC 22 April 2019
Forecast type: FROM: standard forecast or significant change
Winds: from the SSE (160 degrees) at 7 MPH (6 knots; 3.1 m/s)
Visibility: 5 miles (8 km)
Ceiling: at least 12,000 feet AGL
Clouds: scattered clouds at 2000 feet AGL
scattered clouds at 20000 feet AGL
Weather: no significant weather forecast for this period